»·PEaware :: AAL7575 KPDX-KSEA

AAL7575 :: KPDX-KSEA

FLIGHT INFORMATION

Flight Status: Arrived
Operator:
American Airlines
More flights by this operator :: More flights under this callsign
Pilot: Juan B. (20291)
Aircraft: BOEING 737-800
(B738)
More flights by this aircraft type
Origin: KPDX Portland Intl
United States
Destination: KSEA Seattle-Tacoma Intl
United States
More flights between these airports :: More routes between these airports
Route: +COUGA KRIEG HAWKZ6
File this flight plan on PilotEdge
Remarks:
Altitude:
(Current/Filed)
16,000ft
Speed:
(Current/Filed)
400kts
Departed: 02-Sep-18 03:32 PM
Arrived: 02-Sep-18 03:59 PM
Distance/Time
Traveled:
112nm/0:27
Distance/Time
To Go:
Arrived

Flight Plot

Page will automatically refresh every two minutes.

Flight plan parsing failed; only flown route is shown


Map Options




Map Legend


Flown Route
Filed Route
Departure Airport
Arrival Airport
Navaid (VOR, NDB)
Fix

Horizontal Profiles

Position Reports

Time Latitude Longitude Heading Altitude Ground
Speed
02-Sep-18 15:10 45.588209 -122.595785 29 24ft 0kts
02-Sep-18 15:11 45.588209 -122.595785 29 24ft 0kts
02-Sep-18 15:12 45.588209 -122.595785 29 24ft 0kts
02-Sep-18 15:13 45.588209 -122.595785 29 24ft 0kts
02-Sep-18 15:14 45.588209 -122.595785 29 24ft 0kts
02-Sep-18 15:15 45.588209 -122.595785 29 24ft 0kts
02-Sep-18 15:16 45.588209 -122.595785 29 24ft 0kts
02-Sep-18 15:17 45.588209 -122.595785 29 24ft 0kts
02-Sep-18 15:18 45.588209 -122.595785 29 24ft 0kts
02-Sep-18 15:19 45.588209 -122.595785 29 24ft 0kts
02-Sep-18 15:20 45.588209 -122.595785 29 24ft 0kts
02-Sep-18 15:21 45.588180 -122.595809 29 24ft 2kts
02-Sep-18 15:22 45.587687 -122.596043 356 24ft 2kts
02-Sep-18 15:23 45.587188 -122.595705 310 24ft 2kts
02-Sep-18 15:24 45.587101 -122.595531 301 24ft 0kts
02-Sep-18 15:25 45.587101 -122.595531 301 24ft 0kts
02-Sep-18 15:26 45.587148 -122.595639 301 24ft 5kts
02-Sep-18 15:27 45.586402 -122.595808 119 22ft 9kts
02-Sep-18 15:28 45.584468 -122.590841 119 24ft 19kts
02-Sep-18 15:29 45.581916 -122.584306 118 21ft 10kts
02-Sep-18 15:30 45.581537 -122.583678 156 21ft 0kts
02-Sep-18 15:31 45.581537 -122.583678 156 21ft 0kts
02-Sep-18 15:32 45.580840 -122.584751 298 21ft 7kts
02-Sep-18 15:33 45.594367 -122.619872 300 386ft 188kts
02-Sep-18 15:34 45.620557 -122.692175 299 2331ft 240kts
02-Sep-18 15:35 45.661618 -122.766288 348 5372ft 264kts
02-Sep-18 15:37 45.733855 -122.755192 6 8527ft 277kts
02-Sep-18 15:38 45.812066 -122.738354 6 10797ft 313kts
02-Sep-18 15:39 45.897261 -122.719886 5 13524ft 329kts
02-Sep-18 15:40 45.985269 -122.700741 5 15886ft 346kts
02-Sep-18 15:41 46.076656 -122.680755 5 15899ft 342kts
02-Sep-18 15:42 46.166877 -122.690569 349 15905ft 337kts
02-Sep-18 15:43 46.258603 -122.709043 349 15912ft 337kts
02-Sep-18 15:44 46.352198 -122.723607 355 15910ft 363kts
02-Sep-18 15:45 46.457031 -122.727597 356 15908ft 401kts
02-Sep-18 15:46 46.568711 -122.731597 356 15900ft 407kts
02-Sep-18 15:47 46.677873 -122.735491 356 14696ft 395kts
02-Sep-18 15:48 46.780404 -122.730645 17 12649ft 362kts
02-Sep-18 15:49 46.853424 -122.656354 39 11306ft 323kts
02-Sep-18 15:50 46.915577 -122.570952 40 10026ft 307kts
02-Sep-18 15:51 46.971605 -122.486400 42 8747ft 279kts
02-Sep-18 15:52 47.031684 -122.425753 26 7626ft 265kts
02-Sep-18 15:53 47.090336 -122.376366 26 6593ft 246kts
02-Sep-18 15:54 47.146097 -122.329251 28 5545ft 249kts
02-Sep-18 15:55 47.205590 -122.310421 0 4195ft 223kts
02-Sep-18 15:56 47.261291 -122.309364 359 3064ft 195kts
02-Sep-18 15:57 47.311984 -122.308913 358 2214ft 179kts
02-Sep-18 15:58 47.356220 -122.308545 357 1707ft 154kts
02-Sep-18 15:59 47.397932 -122.308236 357 974ft 155kts
02-Sep-18 16:00 47.439003 -122.307963 357 371ft 138kts
02-Sep-18 16:01 47.452226 -122.307506 60 418ft 1kts
02-Sep-18 16:02 47.451453 -122.306238 180 417ft 11kts
02-Sep-18 16:03 47.448065 -122.305712 100 401ft 7kts
02-Sep-18 16:04 47.448038 -122.303195 43 400ft 0kts
02-Sep-18 16:05 47.448098 -122.303111 43 400ft 0kts
02-Sep-18 16:06 47.448098 -122.303111 43 400ft 0kts
02-Sep-18 16:07 47.448098 -122.303111 43 400ft 0kts

Navigation Log

Ident Type
Flight plan parsing failed, navigation log unavailable